4XDNS LLIB-LLHA
Flight info
| Callsign | 4XDNS |
|---|---|
| Flight time | 0h 20m |
| Altitude | 3000 |
| Route | AMNON DESHE ZALMN SEGEV EVLYM GILAM |
| Aircraft | BE35/L-VD/A |
Departure
| Time | 2026-05-01 10:40 |
|---|---|
| Airport | Rosh Pina Airport (LLIB) |
Arrival
| Time | 2026-05-01 11:00 |
|---|---|
| Airport | Uri Michaeli Haifa International Airport (LLHA) |
| Time | Latitude | Longitude | Altitude | Speed | Heading |
|---|---|---|---|---|---|
| 2026-05-01 10:32 | 32.97758 | 35.57249 | 884 ft | 0 kts | 97° |
| 2026-05-01 10:37 | 32.97758 | 35.57248 | 880 ft | 0 kts | 97° |
| 2026-05-01 10:38 | 32.97758 | 35.57249 | 878 ft | 2 kts | 96° |
| 2026-05-01 10:38 | 32.97789 | 35.57301 | 879 ft | 11 kts | 52° |
| 2026-05-01 10:38 | 32.97795 | 35.57310 | 879 ft | 0 kts | 51° |
| 2026-05-01 10:38 | 32.97807 | 35.57327 | 880 ft | 3 kts | 50° |
| 2026-05-01 10:39 | 32.97847 | 35.57360 | 884 ft | 17 kts | 338° |
| 2026-05-01 10:39 | 32.98172 | 35.57134 | 919 ft | 81 kts | 329° |
| 2026-05-01 10:39 | 32.98725 | 35.56856 | 1183 ft | 91 kts | 2° |
| 2026-05-01 10:39 | 32.98954 | 35.57556 | 1458 ft | 122 kts | 116° |
| 2026-05-01 10:40 | 32.98214 | 35.57979 | 1543 ft | 130 kts | 204° |
| 2026-05-01 10:40 | 32.97418 | 35.57549 | 1711 ft | 121 kts | 210° |
| 2026-05-01 10:40 | 32.96608 | 35.57296 | 1765 ft | 120 kts | 194° |
| 2026-05-01 10:40 | 32.95809 | 35.57177 | 1787 ft | 116 kts | 191° |
| 2026-05-01 10:41 | 32.95009 | 35.57098 | 1733 ft | 113 kts | 188° |
| 2026-05-01 10:41 | 32.94232 | 35.57031 | 1659 ft | 111 kts | 188° |
| 2026-05-01 10:41 | 32.92659 | 35.56936 | 1730 ft | 113 kts | 191° |
| 2026-05-01 10:42 | 32.91936 | 35.56898 | 2233 ft | 98 kts | 191° |
| 2026-05-01 10:42 | 32.91289 | 35.56879 | 2648 ft | 92 kts | 192° |
| 2026-05-01 10:42 | 32.90575 | 35.56684 | 2877 ft | 108 kts | 213° |
| 2026-05-01 10:42 | 32.89871 | 35.56150 | 3003 ft | 130 kts | 220° |
| 2026-05-01 10:43 | 32.89170 | 35.55465 | 3104 ft | 128 kts | 221° |
| 2026-05-01 10:43 | 32.88516 | 35.54801 | 3083 ft | 112 kts | 224° |
| 2026-05-01 10:43 | 32.87920 | 35.54191 | 2990 ft | 112 kts | 224° |
| 2026-05-01 10:43 | 32.87348 | 35.53597 | 2945 ft | 108 kts | 227° |
| 2026-05-01 10:44 | 32.86776 | 35.52929 | 3075 ft | 118 kts | 226° |
| 2026-05-01 10:44 | 32.86252 | 35.52187 | 3123 ft | 118 kts | 234° |
| 2026-05-01 10:44 | 32.85963 | 35.51256 | 3039 ft | 125 kts | 272° |
| 2026-05-01 10:44 | 32.86095 | 35.50238 | 3096 ft | 125 kts | 284° |
| 2026-05-01 10:45 | 32.86332 | 35.49254 | 3107 ft | 127 kts | 287° |
| 2026-05-01 10:45 | 32.86592 | 35.48271 | 3168 ft | 116 kts | 286° |
| 2026-05-01 10:45 | 32.86847 | 35.47251 | 3093 ft | 125 kts | 283° |
| 2026-05-01 10:45 | 32.86774 | 35.46227 | 2968 ft | 132 kts | 260° |
| 2026-05-01 10:46 | 32.86496 | 35.45206 | 2954 ft | 126 kts | 252° |
| 2026-05-01 10:46 | 32.86206 | 35.44215 | 2857 ft | 125 kts | 252° |
| 2026-05-01 10:46 | 32.85906 | 35.43238 | 2911 ft | 122 kts | 253° |
| 2026-05-01 10:46 | 32.85696 | 35.42270 | 2929 ft | 122 kts | 262° |
| 2026-05-01 10:47 | 32.85583 | 35.41313 | 2994 ft | 114 kts | 267° |
| 2026-05-01 10:47 | 32.85488 | 35.40365 | 3012 ft | 116 kts | 263° |
| 2026-05-01 10:47 | 32.85360 | 35.39431 | 3071 ft | 114 kts | 262° |
| 2026-05-01 10:47 | 32.85233 | 35.38478 | 3058 ft | 118 kts | 261° |
| 2026-05-01 10:48 | 32.85187 | 35.37536 | 3115 ft | 112 kts | 274° |
| 2026-05-01 10:48 | 32.85284 | 35.36585 | 3069 ft | 120 kts | 279° |
| 2026-05-01 10:48 | 32.85412 | 35.35587 | 3000 ft | 123 kts | 280° |
| 2026-05-01 10:48 | 32.85565 | 35.34592 | 3000 ft | 124 kts | 279° |
| 2026-05-01 10:49 | 32.85689 | 35.33609 | 3028 ft | 122 kts | 278° |
| 2026-05-01 10:49 | 32.85810 | 35.32612 | 3060 ft | 117 kts | 278° |
| 2026-05-01 10:49 | 32.85917 | 35.31677 | 3100 ft | 115 kts | 278° |
| 2026-05-01 10:49 | 32.86032 | 35.30706 | 3018 ft | 120 kts | 276° |
| 2026-05-01 10:50 | 32.86122 | 35.29723 | 3052 ft | 118 kts | 275° |
| 2026-05-01 10:50 | 32.86181 | 35.28742 | 3048 ft | 121 kts | 274° |
| 2026-05-01 10:50 | 32.86248 | 35.27734 | 3008 ft | 124 kts | 273° |
| 2026-05-01 10:50 | 32.86265 | 35.26709 | 3045 ft | 124 kts | 272° |
| 2026-05-01 10:51 | 32.86139 | 35.25711 | 3040 ft | 127 kts | 257° |
| 2026-05-01 10:51 | 32.85907 | 35.24711 | 2990 ft | 123 kts | 255° |
| 2026-05-01 10:51 | 32.85664 | 35.23750 | 2943 ft | 121 kts | 251° |
| 2026-05-01 10:51 | 32.85389 | 35.22829 | 3009 ft | 117 kts | 249° |
| 2026-05-01 10:52 | 32.85057 | 35.21932 | 2983 ft | 120 kts | 244° |
| 2026-05-01 10:52 | 32.84684 | 35.21023 | 2946 ft | 120 kts | 245° |
| 2026-05-01 10:52 | 32.84380 | 35.20148 | 2940 ft | 111 kts | 248° |
| 2026-05-01 10:52 | 32.84069 | 35.19299 | 2889 ft | 109 kts | 245° |
| 2026-05-01 10:53 | 32.83785 | 35.18516 | 2924 ft | 102 kts | 248° |
| 2026-05-01 10:53 | 32.83524 | 35.17718 | 2955 ft | 107 kts | 250° |
| 2026-05-01 10:53 | 32.83250 | 35.16859 | 2797 ft | 118 kts | 249° |
| 2026-05-01 10:53 | 32.82941 | 35.15924 | 2745 ft | 116 kts | 248° |
| 2026-05-01 10:54 | 32.82663 | 35.15090 | 2835 ft | 109 kts | 249° |
| 2026-05-01 10:54 | 32.82381 | 35.14221 | 2771 ft | 114 kts | 249° |
| 2026-05-01 10:54 | 32.82112 | 35.13398 | 2800 ft | 106 kts | 249° |
| 2026-05-01 10:54 | 32.81848 | 35.12527 | 2667 ft | 117 kts | 252° |
| 2026-05-01 10:55 | 32.81596 | 35.11547 | 2473 ft | 129 kts | 255° |
| 2026-05-01 10:55 | 32.81384 | 35.10507 | 2497 ft | 118 kts | 261° |
| 2026-05-01 10:55 | 32.81273 | 35.09706 | 2806 ft | 91 kts | 264° |
| 2026-05-01 10:55 | 32.81240 | 35.08928 | 2733 ft | 97 kts | 268° |
| 2026-05-01 10:56 | 32.81192 | 35.08118 | 2703 ft | 102 kts | 265° |
| 2026-05-01 10:56 | 32.81112 | 35.07179 | 2254 ft | 131 kts | 264° |
| 2026-05-01 10:56 | 32.80988 | 35.06085 | 1909 ft | 134 kts | 266° |
| 2026-05-01 10:56 | 32.80852 | 35.05005 | 1525 ft | 132 kts | 266° |
| 2026-05-01 10:57 | 32.81016 | 35.04056 | 1209 ft | 116 kts | 331° |
| 2026-05-01 10:57 | 32.81746 | 35.04104 | 1050 ft | 113 kts | 54° |
| 2026-05-01 10:57 | 32.81997 | 35.05058 | 940 ft | 128 kts | 71° |
| 2026-05-01 10:57 | 32.82012 | 35.06104 | 923 ft | 130 kts | 123° |
| 2026-05-01 10:58 | 32.81300 | 35.06639 | 927 ft | 125 kts | 161° |
| 2026-05-01 10:58 | 32.80451 | 35.06996 | 892 ft | 132 kts | 167° |
| 2026-05-01 10:58 | 32.79533 | 35.07262 | 787 ft | 140 kts | 176° |
| 2026-05-01 10:58 | 32.78732 | 35.06902 | 796 ft | 122 kts | 231° |
| 2026-05-01 10:59 | 32.78219 | 35.06113 | 690 ft | 109 kts | 274° |
| 2026-05-01 10:59 | 32.78599 | 35.05479 | 599 ft | 101 kts | 324° |
| 2026-05-01 10:59 | 32.79186 | 35.05035 | 371 ft | 93 kts | 337° |
| 2026-05-01 10:59 | 32.79804 | 35.04863 | 239 ft | 92 kts | 345° |
| 2026-05-01 11:00 | 32.80388 | 35.04650 | 61 ft | 82 kts | 340° |
| 2026-05-01 11:00 | 32.80846 | 35.04446 | 21 ft | 58 kts | 341° |
| 2026-05-01 11:00 | 32.81204 | 35.04293 | 23 ft | 45 kts | 339° |
| 2026-05-01 11:00 | 32.81439 | 35.04197 | 24 ft | 14 kts | 1° |
| 2026-05-01 11:01 | 32.81483 | 35.04270 | 26 ft | 9 kts | 68° |
| 2026-05-01 11:01 | 32.81505 | 35.04344 | 22 ft | 10 kts | 68° |
| 2026-05-01 11:01 | 32.81512 | 35.04378 | 21 ft | 0 kts | 68° |